Time;durP1;ratioP1;P1;durP2;ratioP2;P2;SDS_P1;SDS_P2;PMS_P1;PMS_P2;Temp;Humidity;BMP_temperature;BMP_pressure;BME280_temperature;BME280_humidity;BME280_pressure;Samples;Min_cycle;Max_cycle;Signal;HPM_P1;HPM_P2
2022/01/09 00:00:20;;;;;;;40.35;21.13;;;;;;;;;;5093234;28;20032;-73
2022/01/09 00:02:46;;;;;;;62.13;28.08;;;;;;;;;;5093108;28;20020;-73
2022/01/09 00:05:13;;;;;;;56.33;25.67;;;;;;;;;;5093323;28;20035;-73
2022/01/09 00:07:39;;;;;;;36.22;22.08;;;;;;;;;;5093582;28;20421;-73
2022/01/09 00:10:06;;;;;;;60.33;35.22;;;;;;;;;;5092830;28;20080;-73
2022/01/09 00:12:33;;;;;;;50.35;28.60;;;;;;;;;;5093388;28;20381;-73
2022/01/09 00:14:59;;;;;;;37.85;24.52;;;;;;;;;;5093494;28;20103;-73
2022/01/09 00:17:25;;;;;;;36.38;23.42;;;;;;;;;;5092631;28;20392;-73
2022/01/09 00:19:51;;;;;;;35.95;23.52;;;;;;;;;;5093741;28;20028;-73
2022/01/09 00:22:23;;;;;;;37.50;23.08;;;;;;;;;;5093077;28;20028;-73
2022/01/09 00:24:50;;;;;;;38.47;24.92;;;;;;;;;;5092851;28;20016;-73
2022/01/09 00:27:16;;;;;;;34.60;20.95;;;;;;;;;;5093120;28;20054;-73
2022/01/09 00:29:42;;;;;;;36.00;22.98;;;;;;;;;;5093120;28;20044;-72
2022/01/09 00:32:08;;;;;;;33.65;21.45;;;;;;;;;;5092691;28;20027;-73
2022/01/09 00:34:34;;;;;;;41.15;24.60;;;;;;;;;;5095914;28;20020;-73
2022/01/09 00:37:00;;;;;;;42.10;26.73;;;;;;;;;;5096836;28;20016;-73
2022/01/09 00:39:27;;;;;;;37.78;25.67;;;;;;;;;;5096517;28;20436;-73
2022/01/09 00:41:53;;;;;;;45.20;28.05;;;;;;;;;;5096771;28;20032;-73
2022/01/09 00:44:19;;;;;;;41.85;27.35;;;;;;;;;;5096208;28;20046;-74
2022/01/09 00:46:45;;;;;;;40.22;25.73;;;;;;;;;;5096733;28;20536;-73
2022/01/09 00:49:12;;;;;;;43.17;27.02;;;;;;;;;;5096593;28;20040;-73
2022/01/09 00:51:38;;;;;;;36.13;23.73;;;;;;;;;;5096316;28;20403;-73
2022/01/09 00:54:04;;;;;;;36.40;25.33;;;;;;;;;;5096430;28;20080;-72
2022/01/09 00:56:30;;;;;;;43.50;27.05;;;;;;;;;;5096404;28;20476;-72
2022/01/09 00:58:56;;;;;;;42.53;27.20;;;;;;;;;;5096248;28;20035;-72
2022/01/09 01:01:22;;;;;;;43.38;26.63;;;;;;;;;;5096140;28;20063;-72
2022/01/09 01:03:49;;;;;;;42.20;25.00;;;;;;;;;;5096254;28;20020;-72
2022/01/09 01:06:15;;;;;;;41.15;23.52;;;;;;;;;;5096104;28;20464;-73
2022/01/09 01:08:41;;;;;;;53.67;31.10;;;;;;;;;;5096142;28;20031;-72
2022/01/09 01:11:09;;;;;;;44.63;27.17;;;;;;;;;;5096137;28;20058;-74
2022/01/09 01:13:35;;;;;;;44.78;27.55;;;;;;;;;;5095798;28;20468;-74
2022/01/09 01:16:01;;;;;;;45.00;27.40;;;;;;;;;;5096151;28;20028;-74
2022/01/09 01:18:28;;;;;;;45.67;27.30;;;;;;;;;;5095978;28;20048;-72
2022/01/09 01:20:54;;;;;;;43.05;26.58;;;;;;;;;;5095643;28;20035;-72
2022/01/09 01:23:20;;;;;;;40.95;25.08;;;;;;;;;;5096198;28;20402;-72
2022/01/09 01:25:51;;;;;;;45.58;26.70;;;;;;;;;;5095951;28;20380;-72
2022/01/09 01:28:17;;;;;;;44.45;26.40;;;;;;;;;;5095576;28;20024;-74
2022/01/09 01:30:43;;;;;;;39.22;23.70;;;;;;;;;;5094584;28;20020;-72
2022/01/09 01:33:10;;;;;;;39.28;23.20;;;;;;;;;;5094543;28;20484;-74
2022/01/09 01:35:36;;;;;;;39.35;22.02;;;;;;;;;;5095367;28;20028;-73
2022/01/09 01:38:02;;;;;;;35.60;20.83;;;;;;;;;;5095734;28;20024;-74
2022/01/09 01:40:28;;;;;;;34.78;20.38;;;;;;;;;;5095114;28;20036;-72
2022/01/09 01:42:55;;;;;;;32.47;20.13;;;;;;;;;;5095652;28;20020;-72
2022/01/09 01:45:21;;;;;;;41.03;23.92;;;;;;;;;;5094878;28;20051;-72
2022/01/09 01:47:47;;;;;;;38.28;22.92;;;;;;;;;;5093791;28;20050;-72
2022/01/09 01:50:14;;;;;;;33.10;20.05;;;;;;;;;;5095986;28;20047;-73
2022/01/09 01:52:44;;;;;;;40.65;22.40;;;;;;;;;;5095536;28;20099;-72
2022/01/09 01:55:12;;;;;;;39.35;23.33;;;;;;;;;;5094857;28;20085;-72
2022/01/09 01:57:39;;;;;;;34.10;20.77;;;;;;;;;;5095237;28;20031;-72
2022/01/09 02:00:07;;;;;;;39.15;21.88;;;;;;;;;;5095178;28;20035;-72
2022/01/09 02:02:33;;;;;;;36.15;22.77;;;;;;;;;;5094942;28;20031;-73
2022/01/09 02:04:59;;;;;;;31.63;19.45;;;;;;;;;;5095171;28;20020;-73
2022/01/09 02:07:26;;;;;;;35.88;22.10;;;;;;;;;;5095093;28;20025;-73
2022/01/09 02:09:52;;;;;;;36.13;22.63;;;;;;;;;;5094746;28;20028;-73
2022/01/09 02:12:19;;;;;;;35.53;21.02;;;;;;;;;;5095104;28;20020;-72
2022/01/09 02:14:47;;;;;;;34.05;19.98;;;;;;;;;;5094939;28;20480;-72
2022/01/09 02:17:20;;;;;;;29.25;18.73;;;;;;;;;;5094258;28;20415;-72
2022/01/09 02:19:51;;;;;;;34.10;21.50;;;;;;;;;;5095146;28;20039;-72
2022/01/09 02:22:17;;;;;;;35.38;21.38;;;;;;;;;;5094802;28;20471;-72
2022/01/09 02:24:44;;;;;;;38.53;22.88;;;;;;;;;;5094342;28;20028;-72
2022/01/09 02:27:10;;;;;;;31.92;20.48;;;;;;;;;;5094676;28;20052;-72
2022/01/09 02:29:36;;;;;;;39.30;24.50;;;;;;;;;;5094758;28;20059;-72
2022/01/09 02:32:02;;;;;;;48.15;28.45;;;;;;;;;;5094299;28;20032;-72
2022/01/09 02:34:29;;;;;;;39.35;24.55;;;;;;;;;;5094608;28;20106;-72
2022/01/09 02:36:55;;;;;;;46.92;27.15;;;;;;;;;;5094092;28;20028;-72
2022/01/09 02:39:21;;;;;;;35.83;23.60;;;;;;;;;;5094558;28;20048;-72
2022/01/09 02:41:47;;;;;;;50.15;29.45;;;;;;;;;;5094406;28;20020;-72
2022/01/09 02:44:13;;;;;;;44.53;27.50;;;;;;;;;;5092821;28;20016;-72
2022/01/09 02:46:54;;;;;;;41.35;25.33;;;;;;;;;;5094369;28;20021;-73
2022/01/09 02:49:20;;;;;;;37.63;23.88;;;;;;;;;;5094386;28;20039;-73
2022/01/09 02:51:46;;;;;;;42.38;25.92;;;;;;;;;;5093840;28;20055;-72
2022/01/09 02:56:58;;;;;;;45.03;28.33;;;;;;;;;;5093636;28;20557;-72
2022/01/09 02:59:24;;;;;;;44.10;27.63;;;;;;;;;;5093653;28;20452;-72
2022/01/09 03:01:50;;;;;;;41.92;24.88;;;;;;;;;;5094386;28;20361;-73
2022/01/09 03:04:17;;;;;;;42.80;28.13;;;;;;;;;;5094233;28;20023;-73
2022/01/09 03:06:43;;;;;;;43.20;27.70;;;;;;;;;;5093706;28;20448;-72
2022/01/09 03:09:09;;;;;;;48.00;30.27;;;;;;;;;;5092742;28;20419;-73
2022/01/09 03:11:37;;;;;;;44.03;27.73;;;;;;;;;;5094464;28;20048;-72
2022/01/09 03:14:03;;;;;;;43.78;26.55;;;;;;;;;;5093573;28;20076;-72
2022/01/09 03:16:30;;;;;;;46.38;26.20;;;;;;;;;;5093842;28;20357;-72
2022/01/09 03:18:56;;;;;;;38.83;23.73;;;;;;;;;;5093202;28;20511;-72
2022/01/09 03:21:22;;;;;;;42.30;24.67;;;;;;;;;;5093692;28;20044;-72
2022/01/09 03:23:48;;;;;;;43.05;24.55;;;;;;;;;;5093759;28;20020;-72
2022/01/09 03:26:14;;;;;;;46.83;22.95;;;;;;;;;;5093353;28;20547;-73
2022/01/09 03:28:41;;;;;;;42.35;23.73;;;;;;;;;;5093695;28;20095;-72
2022/01/09 03:31:07;;;;;;;56.00;29.08;;;;;;;;;;5093815;28;20035;-72
2022/01/09 03:33:33;;;;;;;49.38;26.60;;;;;;;;;;5093311;28;20484;-72
2022/01/09 03:35:59;;;;;;;49.47;23.23;;;;;;;;;;5093663;28;20031;-72
2022/01/09 03:38:26;;;;;;;42.33;22.48;;;;;;;;;;5093655;28;20030;-72
2022/01/09 03:40:52;;;;;;;43.08;22.45;;;;;;;;;;5093032;28;20036;-72
2022/01/09 03:43:18;;;;;;;40.53;22.70;;;;;;;;;;5093563;28;20069;-72
2022/01/09 03:45:44;;;;;;;41.15;23.35;;;;;;;;;;5092269;28;20031;-72
2022/01/09 03:48:10;;;;;;;47.53;27.55;;;;;;;;;;5093251;28;20023;-72
2022/01/09 03:50:37;;;;;;;46.58;27.70;;;;;;;;;;5093760;28;20070;-72
2022/01/09 03:53:04;;;;;;;41.75;24.63;;;;;;;;;;5093573;28;20031;-72
2022/01/09 03:55:31;;;;;;;33.58;20.67;;;;;;;;;;5093085;28;20027;-72
2022/01/09 03:57:57;;;;;;;38.15;22.70;;;;;;;;;;5093643;28;20028;-72
2022/01/09 04:00:24;;;;;;;38.53;22.75;;;;;;;;;;5093301;28;20043;-72
2022/01/09 04:02:51;;;;;;;43.13;24.52;;;;;;;;;;5093034;28;20026;-72
2022/01/09 04:05:18;;;;;;;42.75;25.15;;;;;;;;;;5093347;28;20035;-73
2022/01/09 04:07:44;;;;;;;36.00;21.40;;;;;;;;;;5093334;28;20017;-72
2022/01/09 04:10:10;;;;;;;41.70;24.17;;;;;;;;;;5097027;28;20020;-72
2022/01/09 04:12:47;;;;;;;41.65;23.30;;;;;;;;;;5097310;28;20077;-72
2022/01/09 04:15:14;;;;;;;48.67;24.60;;;;;;;;;;5097216;28;20375;-72
2022/01/09 04:20:13;;;;;;;40.40;22.60;;;;;;;;;;5097148;28;20044;-72
2022/01/09 04:22:40;;;;;;;43.40;22.70;;;;;;;;;;5096777;28;20020;-72
2022/01/09 04:25:06;;;;;;;42.70;23.85;;;;;;;;;;5097173;28;20024;-73
2022/01/09 04:27:33;;;;;;;38.25;22.58;;;;;;;;;;5097088;28;20103;-73
2022/01/09 04:29:59;;;;;;;42.42;22.88;;;;;;;;;;5096760;28;20016;-73
2022/01/09 04:32:25;;;;;;;41.70;23.70;;;;;;;;;;5097323;28;20024;-73
2022/01/09 04:34:51;;;;;;;35.95;19.80;;;;;;;;;;5096965;28;20023;-73
2022/01/09 04:37:18;;;;;;;39.45;23.38;;;;;;;;;;5096662;28;20059;-73
2022/01/09 04:39:47;;;;;;;42.45;24.23;;;;;;;;;;5096843;28;20024;-74
2022/01/09 04:42:13;;;;;;;39.15;22.13;;;;;;;;;;5096738;28;20499;-73
2022/01/09 04:44:40;;;;;;;33.20;20.60;;;;;;;;;;5096381;28;20016;-71
2022/01/09 04:47:11;;;;;;;33.30;19.20;;;;;;;;;;5096677;28;20024;-72
2022/01/09 04:49:40;;;;;;;35.88;20.23;;;;;;;;;;5096700;28;20024;-72
2022/01/09 04:52:10;;;;;;;44.33;22.58;;;;;;;;;;5094929;28;20035;-71
2022/01/09 04:54:36;;;;;;;44.33;24.95;;;;;;;;;;5096511;28;20018;-71
2022/01/09 04:57:02;;;;;;;41.88;23.08;;;;;;;;;;5096547;28;20476;-71
2022/01/09 04:59:29;;;;;;;36.28;22.30;;;;;;;;;;5096033;28;20048;-71
2022/01/09 05:01:55;;;;;;;44.17;24.80;;;;;;;;;;5096452;28;20028;-71
2022/01/09 05:04:21;;;;;;;43.30;24.23;;;;;;;;;;5096229;28;20024;-72
2022/01/09 05:06:48;;;;;;;49.80;27.50;;;;;;;;;;5096248;28;20020;-72
2022/01/09 05:09:14;;;;;;;47.00;25.60;;;;;;;;;;5096286;28;20065;-72
2022/01/09 05:11:40;;;;;;;44.60;26.15;;;;;;;;;;5096092;28;20020;-72
2022/01/09 05:14:06;;;;;;;53.30;30.67;;;;;;;;;;5096210;28;20016;-72
2022/01/09 05:16:33;;;;;;;49.65;28.85;;;;;;;;;;5096103;28;20057;-72
2022/01/09 05:19:05;;;;;;;53.22;28.83;;;;;;;;;;5095529;28;20086;-72
2022/01/09 05:21:31;;;;;;;45.67;26.95;;;;;;;;;;5095220;28;20024;-72
2022/01/09 05:23:57;;;;;;;43.47;23.77;;;;;;;;;;5095998;28;20028;-72
2022/01/09 05:26:23;;;;;;;42.20;23.40;;;;;;;;;;5095597;28;20476;-72
2022/01/09 05:28:49;;;;;;;43.00;25.30;;;;;;;;;;5095916;28;20035;-72
2022/01/09 05:31:16;;;;;;;47.63;25.27;;;;;;;;;;5094619;28;20160;-72
2022/01/09 05:33:42;;;;;;;38.47;23.08;;;;;;;;;;5095433;28;20044;-72
2022/01/09 05:36:08;;;;;;;53.30;28.63;;;;;;;;;;5095751;28;20024;-72
2022/01/09 05:38:34;;;;;;;47.05;26.80;;;;;;;;;;5095985;28;20020;-72
2022/01/09 05:41:00;;;;;;;53.95;28.80;;;;;;;;;;5095249;28;20440;-73
2022/01/09 05:43:27;;;;;;;51.40;26.88;;;;;;;;;;5095811;28;20055;-72
2022/01/09 05:45:53;;;;;;;55.25;30.50;;;;;;;;;;5095510;28;20036;-73
2022/01/09 05:48:19;;;;;;;61.47;31.15;;;;;;;;;;5095106;28;20358;-73
2022/01/09 05:50:45;;;;;;;52.33;30.10;;;;;;;;;;5096025;28;20103;-72
2022/01/09 05:53:11;;;;;;;50.53;28.25;;;;;;;;;;5095403;28;20032;-72
2022/01/09 05:55:38;;;;;;;55.50;28.38;;;;;;;;;;5095010;28;20098;-72
2022/01/09 05:58:04;;;;;;;64.32;31.90;;;;;;;;;;5095272;28;20023;-72
2022/01/09 06:00:30;;;;;;;63.20;32.30;;;;;;;;;;5095188;28;20036;-73
2022/01/09 06:02:56;;;;;;;59.40;30.27;;;;;;;;;;5093554;28;20020;-73
2022/01/09 06:05:23;;;;;;;66.80;32.00;;;;;;;;;;5095421;28;20485;-73
2022/01/09 06:07:49;;;;;;;68.72;32.78;;;;;;;;;;5094727;28;20070;-73
2022/01/09 06:10:15;;;;;;;74.60;39.53;;;;;;;;;;5095181;28;20028;-73
2022/01/09 06:12:42;;;;;;;64.00;33.60;;;;;;;;;;5095258;28;20016;-72
2022/01/09 06:15:08;;;;;;;58.08;27.42;;;;;;;;;;5094685;28;20495;-73
2022/01/09 06:17:36;;;;;;;67.32;33.58;;;;;;;;;;5095022;28;20052;-72
2022/01/09 06:20:02;;;;;;;61.03;30.15;;;;;;;;;;5094781;28;20032;-73
2022/01/09 06:22:28;;;;;;;62.45;29.67;;;;;;;;;;5094476;28;20365;-73
2022/01/09 06:24:54;;;;;;;58.22;31.20;;;;;;;;;;5094746;28;20021;-73
2022/01/09 06:27:21;;;;;;;54.65;28.15;;;;;;;;;;5094752;28;20031;-73
2022/01/09 06:29:47;;;;;;;53.10;28.02;;;;;;;;;;5094549;28;20028;-73
2022/01/09 06:32:14;;;;;;;49.10;25.70;;;;;;;;;;5094885;28;20399;-73
2022/01/09 06:34:41;;;;;;;55.35;28.35;;;;;;;;;;5094705;28;20031;-72
2022/01/09 06:37:07;;;;;;;45.22;24.52;;;;;;;;;;5094183;28;20047;-73
2022/01/09 06:39:34;;;;;;;54.33;29.35;;;;;;;;;;5094404;28;20023;-73
2022/01/09 06:42:00;;;;;;;52.38;27.45;;;;;;;;;;5094511;28;20495;-72
2022/01/09 06:44:26;;;;;;;58.67;31.17;;;;;;;;;;5094057;28;20142;-73
2022/01/09 06:46:52;;;;;;;70.28;31.30;;;;;;;;;;5094410;28;20024;-73
2022/01/09 06:49:18;;;;;;;59.20;30.13;;;;;;;;;;5093106;28;20406;-73
2022/01/09 06:51:45;;;;;;;57.08;30.65;;;;;;;;;;5093965;28;20024;-73
2022/01/09 06:54:13;;;;;;;72.00;35.35;;;;;;;;;;5094227;28;20034;-72
2022/01/09 06:56:39;;;;;;;56.92;32.05;;;;;;;;;;5094785;28;20020;-72
2022/01/09 06:59:05;;;;;;;67.40;35.55;;;;;;;;;;5093739;28;20465;-72
2022/01/09 07:01:31;;;;;;;65.13;33.20;;;;;;;;;;5094035;28;20032;-73
2022/01/09 07:03:58;;;;;;;66.03;36.35;;;;;;;;;;5093542;28;20020;-73
2022/01/09 07:06:24;;;;;;;60.55;31.00;;;;;;;;;;5094099;28;20498;-73
2022/01/09 07:08:50;;;;;;;77.78;39.33;;;;;;;;;;5094013;28;20464;-73
2022/01/09 07:11:16;;;;;;;62.90;36.75;;;;;;;;;;5093602;28;20031;-73
2022/01/09 07:13:42;;;;;;;67.88;36.58;;;;;;;;;;5093946;28;20038;-73
2022/01/09 07:16:09;;;;;;;78.10;37.13;;;;;;;;;;5093916;28;20482;-73
2022/01/09 07:18:35;;;;;;;58.20;32.42;;;;;;;;;;5093191;28;20044;-73
2022/01/09 07:21:03;;;;;;;60.88;34.22;;;;;;;;;;5094028;28;20032;-74
2022/01/09 07:23:30;;;;;;;51.20;27.27;;;;;;;;;;5093871;28;20031;-73
2022/01/09 07:25:56;;;;;;;50.97;27.77;;;;;;;;;;5093402;28;20380;-73
2022/01/09 07:28:22;;;;;;;64.78;32.75;;;;;;;;;;5093760;28;20468;-73
2022/01/09 07:30:48;;;;;;;62.60;31.30;;;;;;;;;;5093694;28;20028;-73
2022/01/09 07:33:14;;;;;;;45.70;25.95;;;;;;;;;;5093419;28;20021;-73
2022/01/09 07:35:41;;;;;;;43.58;25.90;;;;;;;;;;5093713;28;20104;-72
2022/01/09 07:38:07;;;;;;;54.92;31.90;;;;;;;;;;5093857;28;20380;-73
2022/01/09 07:40:33;;;;;;;45.47;24.65;;;;;;;;;;5093181;28;20032;-73
2022/01/09 07:42:59;;;;;;;49.15;26.70;;;;;;;;;;5093193;28;20040;-73
2022/01/09 07:45:26;;;;;;;40.78;23.08;;;;;;;;;;5093449;28;20361;-73
2022/01/09 07:47:52;;;;;;;42.40;25.27;;;;;;;;;;5092877;28;20065;-73
2022/01/09 07:50:19;;;;;;;40.40;23.80;;;;;;;;;;5093346;28;20024;-73
2022/01/09 07:52:45;;;;;;;46.47;25.50;;;;;;;;;;5093556;28;20020;-72
2022/01/09 07:55:12;;;;;;;40.30;23.20;;;;;;;;;;5093088;28;20408;-72
2022/01/09 07:57:38;;;;;;;62.65;35.88;;;;;;;;;;5092171;28;20016;-72
2022/01/09 08:00:05;;;;;;;58.63;34.90;;;;;;;;;;5093408;28;20024;-72
2022/01/09 08:02:31;;;;;;;51.92;30.27;;;;;;;;;;5093111;28;20444;-73
2022/01/09 08:04:57;;;;;;;55.95;29.27;;;;;;;;;;5092138;28;20024;-73
2022/01/09 08:07:24;;;;;;;52.30;29.58;;;;;;;;;;5093220;28;20480;-73
2022/01/09 08:09:50;;;;;;;82.40;51.58;;;;;;;;;;5093397;28;20035;-73
2022/01/09 08:12:16;;;;;;;58.40;39.67;;;;;;;;;;5093252;28;20099;-73
2022/01/09 08:14:43;;;;;;;57.90;33.47;;;;;;;;;;5093201;28;20028;-73
2022/01/09 08:17:09;;;;;;;58.80;35.45;;;;;;;;;;5093079;28;20016;-72
2022/01/09 08:19:35;;;;;;;66.90;33.00;;;;;;;;;;5093264;28;20063;-73
2022/01/09 08:22:02;;;;;;;62.50;37.72;;;;;;;;;;5092795;28;20035;-72
2022/01/09 08:24:28;;;;;;;65.03;36.33;;;;;;;;;;5093193;28;20048;-75
2022/01/09 08:26:55;;;;;;;65.88;38.90;;;;;;;;;;5093405;28;20043;-74
2022/01/09 08:29:21;;;;;;;68.63;40.13;;;;;;;;;;5092664;28;20027;-73
2022/01/09 08:31:47;;;;;;;66.75;33.85;;;;;;;;;;5093098;28;20499;-73
2022/01/09 08:34:14;;;;;;;56.85;34.85;;;;;;;;;;5093082;28;20028;-73
2022/01/09 08:36:40;;;;;;;58.15;32.25;;;;;;;;;;5092764;28;20094;-73
2022/01/09 08:39:06;;;;;;;67.20;39.70;;;;;;;;;;5093262;28;20028;-71
2022/01/09 08:41:33;;;;;;;62.00;31.95;;;;;;;;;;5092977;28;20039;-73
2022/01/09 08:44:04;;;;;;;67.30;36.45;;;;;;;;;;5091352;28;20411;-73
2022/01/09 08:46:30;;;;;;;67.57;33.35;;;;;;;;;;5093221;28;20024;-73
2022/01/09 08:48:57;;;;;;;85.82;48.58;;;;;;;;;;5093207;28;20032;-72
2022/01/09 08:51:23;;;;;;;61.15;33.83;;;;;;;;;;5092461;28;20031;-72
2022/01/09 08:53:52;;;;;;;53.03;27.95;;;;;;;;;;5092839;28;20024;-71
2022/01/09 08:56:19;;;;;;;70.80;38.50;;;;;;;;;;5095430;28;20429;-72
2022/01/09 08:58:45;;;;;;;54.42;27.38;;;;;;;;;;5096077;28;20043;-72
2022/01/09 09:01:11;;;;;;;50.58;26.17;;;;;;;;;;5096676;28;20033;-73
2022/01/09 09:03:41;;;;;;;52.28;28.10;;;;;;;;;;5096235;28;20464;-74
2022/01/09 09:06:10;;;;;;;44.90;26.60;;;;;;;;;;5096410;28;20027;-73
2022/01/09 09:08:37;;;;;;;48.10;25.92;;;;;;;;;;5096325;28;20062;-73
2022/01/09 09:11:04;;;;;;;47.47;26.42;;;;;;;;;;5095829;28;20365;-73
2022/01/09 09:13:30;;;;;;;60.88;31.55;;;;;;;;;;5096528;28;20043;-72
2022/01/09 09:15:56;;;;;;;43.65;25.00;;;;;;;;;;5096331;28;20024;-72
2022/01/09 09:18:22;;;;;;;42.92;22.77;;;;;;;;;;5095527;28;20089;-73
2022/01/09 09:20:48;;;;;;;38.30;22.40;;;;;;;;;;5096274;28;20040;-73
2022/01/09 09:23:15;;;;;;;44.60;24.00;;;;;;;;;;5096046;28;20016;-74
2022/01/09 09:25:41;;;;;;;44.30;24.85;;;;;;;;;;5095582;28;20023;-73
2022/01/09 09:28:07;;;;;;;48.67;31.30;;;;;;;;;;5095917;28;20024;-73
2022/01/09 09:30:33;;;;;;;42.28;23.00;;;;;;;;;;5095861;28;20499;-73
2022/01/09 09:32:59;;;;;;;48.00;24.58;;;;;;;;;;5095471;28;20024;-72
2022/01/09 09:35:26;;;;;;;37.03;21.63;;;;;;;;;;5095867;28;20020;-72
2022/01/09 09:37:52;;;;;;;34.92;19.73;;;;;;;;;;5095634;28;20483;-72
2022/01/09 09:40:18;;;;;;;31.92;18.35;;;;;;;;;;5095286;28;20035;-73
2022/01/09 09:42:44;;;;;;;37.15;23.67;;;;;;;;;;5094445;28;20020;-72
2022/01/09 09:45:11;;;;;;;36.25;20.30;;;;;;;;;;5096156;28;20027;-73
2022/01/09 09:47:38;;;;;;;30.30;16.98;;;;;;;;;;5095199;28;20414;-73
2022/01/09 09:50:05;;;;;;;39.85;24.55;;;;;;;;;;5095535;28;20031;-70
2022/01/09 09:52:32;;;;;;;39.38;24.90;;;;;;;;;;5094141;28;20445;-72
2022/01/09 09:54:58;;;;;;;31.85;19.27;;;;;;;;;;5095029;28;20024;-72
2022/01/09 09:57:25;;;;;;;28.52;18.55;;;;;;;;;;5095675;28;20024;-71
2022/01/09 09:59:59;;;;;;;26.80;16.30;;;;;;;;;;5094943;28;20032;-73
2022/01/09 10:02:25;;;;;;;26.13;15.60;;;;;;;;;;5095420;28;20384;-73
2022/01/09 10:05:18;;;;;;;23.77;14.73;;;;;;;;;;5095146;28;20024;-72
2022/01/09 10:07:45;;;;;;;27.60;16.90;;;;;;;;;;5091764;28;20057;-72
2022/01/09 10:10:14;;;;;;;23.65;14.45;;;;;;;;;;5095129;28;20077;-72
2022/01/09 10:12:41;;;;;;;20.98;14.07;;;;;;;;;;5095062;28;20077;-72
2022/01/09 10:15:10;;;;;;;28.30;15.38;;;;;;;;;;5094639;28;20027;-73
2022/01/09 10:17:41;;;;;;;27.95;17.90;;;;;;;;;;5094871;28;20388;-73
2022/01/09 10:20:15;;;;;;;26.92;16.48;;;;;;;;;;5093659;28;20045;-74
2022/01/09 10:22:44;;;;;;;24.05;14.88;;;;;;;;;;5094543;28;20414;-73
2022/01/09 10:25:13;;;;;;;26.30;13.90;;;;;;;;;;5094804;28;20016;-73
2022/01/09 10:27:39;;;;;;;28.52;15.57;;;;;;;;;;5094791;28;20028;-73
2022/01/09 10:30:06;;;;;;;27.50;16.30;;;;;;;;;;5094425;28;20026;-73
2022/01/09 10:32:33;;;;;;;25.10;15.85;;;;;;;;;;5094750;28;20047;-72
2022/01/09 10:35:06;;;;;;;22.70;13.38;;;;;;;;;;5094172;28;20071;-72
2022/01/09 10:37:32;;;;;;;36.33;16.92;;;;;;;;;;5094515;28;20020;-72
2022/01/09 10:40:00;;;;;;;32.47;17.60;;;;;;;;;;5094723;28;20066;-72
2022/01/09 10:42:26;;;;;;;22.60;14.07;;;;;;;;;;5094643;28;20028;-72
2022/01/09 10:44:53;;;;;;;23.23;13.18;;;;;;;;;;5094434;28;20108;-72
2022/01/09 10:47:19;;;;;;;24.65;15.02;;;;;;;;;;5094374;28;20131;-72
2022/01/09 10:49:52;;;;;;;25.13;11.70;;;;;;;;;;5094076;28;20499;-72
2022/01/09 10:52:18;;;;;;;;;;;;;;;;;;5094740;28;20540;-72
2022/01/09 10:54:48;;;;;;;17.85;11.27;;;;;;;;;;5094254;28;19904;-72
2022/01/09 10:57:19;;;;;;;22.98;13.77;;;;;;;;;;5093786;28;20384;-72
2022/01/09 10:59:45;;;;;;;16.80;10.30;;;;;;;;;;5094100;28;20017;-72
2022/01/09 11:02:12;;;;;;;21.42;11.57;;;;;;;;;;5094173;28;20530;-73
2022/01/09 11:04:39;;;;;;;21.42;12.43;;;;;;;;;;5093787;28;20020;-73
2022/01/09 11:07:07;;;;;;;22.42;13.10;;;;;;;;;;5094033;28;20031;-73
2022/01/09 11:09:33;;;;;;;34.13;19.42;;;;;;;;;;5094387;28;20423;-73
2022/01/09 11:12:02;;;;;;;18.02;9.50;;;;;;;;;;5093710;28;20103;-73
2022/01/09 11:14:34;;;;;;;19.35;11.98;;;;;;;;;;5094040;28;20089;-73
2022/01/09 11:17:03;;;;;;;21.90;11.70;;;;;;;;;;5093944;28;20538;-71
2022/01/09 11:19:29;;;;;;;24.33;15.50;;;;;;;;;;5093219;28;20012;-73
2022/01/09 11:22:01;;;;;;;25.02;15.18;;;;;;;;;;5093911;28;20028;-74
2022/01/09 11:24:36;;;;;;;20.77;11.18;;;;;;;;;;5093570;28;20020;-72
2022/01/09 11:27:08;;;;;;;29.60;16.60;;;;;;;;;;5093839;28;20043;-72
2022/01/09 11:29:46;;;;;;;18.17;10.35;;;;;;;;;;5093717;28;20024;-72
2022/01/09 11:32:12;;;;;;;21.65;12.70;;;;;;;;;;5093385;28;20024;-72
2022/01/09 11:34:48;;;;;;;20.60;12.02;;;;;;;;;;5093872;28;20589;-72
2022/01/09 11:37:46;;;;;;;19.52;13.90;;;;;;;;;;5111883;27;20384;-73
2022/01/09 11:40:26;;;;;;;25.17;11.32;;;;;;;;;;5110904;28;20032;-73
2022/01/09 11:43:01;;;;;;;15.00;9.30;;;;;;;;;;5111344;28;20095;-73
2022/01/09 11:45:41;;;;;;;18.30;12.43;;;;;;;;;;5110906;28;20020;-73
2022/01/09 11:50:18;;;;;;;17.58;10.50;;;;;;;;;;5111464;27;20397;-73
2022/01/09 11:52:57;;;;;;;35.17;20.90;;;;;;;;;;5110908;28;20046;-73
2022/01/09 11:55:41;;;;;;;22.58;11.48;;;;;;;;;;5111199;28;20038;-73
2022/01/09 11:58:10;;;;;;;20.40;12.00;;;;;;;;;;5111189;28;20019;-73
2022/01/09 12:00:38;;;;;;;33.72;21.08;;;;;;;;;;5110819;28;20016;-73
2022/01/09 12:03:23;;;;;;;26.70;17.17;;;;;;;;;;5111123;28;20024;-73
2022/01/09 12:09:10;;;;;;;22.45;13.52;;;;;;;;;;5132411;27;20115;-73
2022/01/09 12:11:55;;;;;;;16.02;8.98;;;;;;;;;;5093172;28;20036;-73
2022/01/09 12:15:04;;;;;;;26.73;17.80;;;;;;;;;;5110900;28;20026;-73
2022/01/09 12:17:42;;;;;;;28.08;15.38;;;;;;;;;;5009069;28;20109;-73
2022/01/09 12:20:11;;;;;;;28.42;14.57;;;;;;;;;;4992503;28;20046;-74
2022/01/09 12:22:44;;;;;;;19.10;12.55;;;;;;;;;;5052321;28;20032;-73
2022/01/09 12:25:22;;;;;;;25.02;15.13;;;;;;;;;;5092755;28;20047;-74
2022/01/09 12:27:54;;;;;;;17.58;9.95;;;;;;;;;;5110413;28;20518;-73
2022/01/09 12:30:46;;;;;;;18.67;10.73;;;;;;;;;;5132354;27;20119;-72
2022/01/09 12:36:31;;;;;;;36.42;20.63;;;;;;;;;;5111070;27;20523;-74
2022/01/09 12:41:16;;;;;;;27.15;15.85;;;;;;;;;;5111579;27;20392;-73
2022/01/09 12:46:33;;;;;;;32.97;18.13;;;;;;;;;;5111878;27;20407;-73
2022/01/09 12:52:05;;;;;;;36.75;22.40;;;;;;;;;;5112148;27;20408;-72
2022/01/09 12:55:27;;;;;;;33.05;15.93;;;;;;;;;;5111935;27;20746;-73
2022/01/09 12:57:55;;;;;;;31.55;16.17;;;;;;;;;;5111023;28;20030;-73
2022/01/09 13:00:28;;;;;;;23.75;13.60;;;;;;;;;;5111303;28;20028;-73
2022/01/09 13:02:55;;;;;;;23.70;14.57;;;;;;;;;;5110946;28;20048;-73
2022/01/09 13:05:23;;;;;;;18.08;10.40;;;;;;;;;;5111399;28;20046;-73
2022/01/09 13:07:56;;;;;;;32.90;14.93;;;;;;;;;;5111277;28;20034;-73
2022/01/09 13:10:22;;;;;;;;;;;;;;;;;;5111104;28;20073;-73
2022/01/09 13:13:04;;;;;;;22.27;12.50;;;;;;;;;;5110948;28;19966;-73
2022/01/09 13:16:35;;;;;;;31.80;18.73;;;;;;;;;;5111935;27;20396;-74
2022/01/09 13:19:11;;;;;;;39.88;22.15;;;;;;;;;;5112581;28;20106;-74
2022/01/09 13:21:38;;;;;;;41.30;22.88;;;;;;;;;;5111640;28;20494;-74
2022/01/09 13:24:12;;;;;;;30.65;17.90;;;;;;;;;;5110788;28;20047;-73
2022/01/09 13:26:43;;;;;;;35.72;20.02;;;;;;;;;;5111216;28;20418;-73
2022/01/09 13:30:56;;;;;;;21.95;12.38;;;;;;;;;;5111398;27;20396;-71
2022/01/09 13:33:58;;;;;;;24.90;14.82;;;;;;;;;;5112097;27;20385;-72
2022/01/09 13:36:27;;;;;;;28.88;15.30;;;;;;;;;;5111352;28;20396;-72
2022/01/09 13:38:53;;;;;;;27.17;15.52;;;;;;;;;;5111053;28;20023;-72
2022/01/09 13:41:19;;;;;;;26.70;14.52;;;;;;;;;;5111351;28;20020;-73
2022/01/09 13:44:26;;;;;;;26.75;14.73;;;;;;;;;;5111682;27;20396;-74
2022/01/09 13:47:10;;;;;;;18.52;11.93;;;;;;;;;;5110940;28;20039;-73
2022/01/09 13:49:38;;;;;;;18.13;11.90;;;;;;;;;;5111328;28;20074;-73
2022/01/09 13:52:35;;;;;;;20.35;12.20;;;;;;;;;;5111101;27;20384;-72
2022/01/09 13:55:04;;;;;;;20.15;12.88;;;;;;;;;;5111368;28;20052;-72
2022/01/09 13:57:31;;;;;;;18.30;10.52;;;;;;;;;;5111279;28;20077;-72
2022/01/09 14:00:00;;;;;;;16.58;9.73;;;;;;;;;;5110871;28;20020;-72
2022/01/09 14:02:39;;;;;;;16.75;10.82;;;;;;;;;;5111543;27;20384;-74
2022/01/09 14:05:24;;;;;;;28.42;16.48;;;;;;;;;;5111661;28;20077;-74
2022/01/09 14:09:13;;;;;;;27.60;15.32;;;;;;;;;;5111504;27;20407;-74
2022/01/09 14:12:47;;;;;;;25.88;16.50;;;;;;;;;;5086813;28;20394;-73
2022/01/09 14:15:15;;;;;;;31.77;23.25;;;;;;;;;;5070342;28;20119;-74
2022/01/09 14:17:48;;;;;;;39.55;26.08;;;;;;;;;;5070775;28;20056;-73
2022/01/09 14:20:45;;;;;;;24.13;13.60;;;;;;;;;;5111097;27;20396;-74
2022/01/09 14:23:32;;;;;;;21.33;13.38;;;;;;;;;;5111824;27;20380;-74
2022/01/09 14:26:05;;;;;;;31.80;15.73;;;;;;;;;;5111927;28;20442;-73
2022/01/09 14:28:31;;;;;;;;;;;;;;;;;;5111618;28;20375;-73
2022/01/09 14:31:03;;;;;;;22.25;14.82;;;;;;;;;;5111260;28;19995;-73
2022/01/09 14:35:01;;;;;;;26.60;19.60;;;;;;;;;;5111157;27;20384;-73
2022/01/09 14:38:01;;;;;;;30.77;19.48;;;;;;;;;;5111909;27;20446;-73
2022/01/09 14:40:50;;;;;;;32.22;19.10;;;;;;;;;;5112039;27;20385;-73
2022/01/09 14:43:16;;;;;;;34.20;21.48;;;;;;;;;;5110929;28;20027;-73
2022/01/09 14:45:43;;;;;;;33.83;19.05;;;;;;;;;;5110003;28;20051;-73
2022/01/09 14:48:09;;;;;;;44.00;26.30;;;;;;;;;;5110766;28;20032;-73
2022/01/09 14:50:36;;;;;;;31.52;19.75;;;;;;;;;;5111181;28;20024;-74
2022/01/09 14:53:04;;;;;;;39.20;24.67;;;;;;;;;;5111060;28;20020;-73
2022/01/09 14:55:30;;;;;;;35.22;22.23;;;;;;;;;;5110498;28;20024;-73